Time;durP1;ratioP1;P1;durP2;ratioP2;P2;SDS_P1;SDS_P2;PMS_P1;PMS_P2;Temp;Humidity;BMP_temperature;BMP_pressure;BME280_temperature;BME280_humidity;BME280_pressure;Samples;Min_cycle;Max_cycle;Signal;HPM_P1;HPM_P2
2023/12/18 00:01:14;;;;;;;8.80;3.20;;;;;;;17.41;38.23;101123.80;105618;1253;63710;-54
2023/12/18 00:03:41;;;;;;;10.80;7.30;;;;;;;17.47;38.08;101125.33;106050;1253;60551;-55
2023/12/18 00:06:09;;;;;;;15.00;3.40;;;;;;;17.50;37.96;101125.63;105387;1253;60319;-57
2023/12/18 00:08:37;;;;;;;13.20;9.00;;;;;;;17.49;38.13;101133.72;105353;1257;64923;-55
2023/12/18 00:11:05;;;;;;;7.50;3.10;;;;;;;17.45;37.97;101133.38;105519;1253;61368;-55
2023/12/18 00:13:32;;;;;;;13.00;8.80;;;;;;;17.41;38.11;101126.84;105321;1253;63673;-57
2023/12/18 00:16:01;;;;;;;9.60;3.20;;;;;;;17.37;38.27;101122.78;105345;1253;60517;-55
2023/12/18 00:18:28;;;;;;;7.60;3.80;;;;;;;17.40;38.21;101129.73;105909;1257;60412;-56
2023/12/18 00:20:56;;;;;;;8.40;3.50;;;;;;;17.43;38.23;101122.70;105368;1254;63763;-57
2023/12/18 00:23:24;;;;;;;13.50;8.10;;;;;;;17.48;38.29;101119.21;105259;1258;61343;-57
2023/12/18 00:25:51;;;;;;;7.40;2.90;;;;;;;17.54;38.10;101116.91;105304;1253;62450;-59
2023/12/18 00:28:19;;;;;;;14.40;8.70;;;;;;;17.57;38.29;101115.71;105352;1257;60557;-56
2023/12/18 00:30:48;;;;;;;9.80;3.40;;;;;;;17.61;38.25;101117.98;105285;1257;60464;-57
2023/12/18 00:33:16;;;;;;;14.40;8.00;;;;;;;17.62;38.21;101109.52;105890;1253;65008;-57
2023/12/18 00:35:44;;;;;;;6.90;2.40;;;;;;;17.59;38.31;101097.42;105267;1257;60414;-57
2023/12/18 00:38:11;;;;;;;9.80;7.00;;;;;;;17.64;38.25;101086.80;105320;1253;72438;-55
2023/12/18 00:40:39;;;;;;;6.50;2.20;;;;;;;17.67;38.03;101082.10;105274;1259;60550;-56
2023/12/18 00:43:06;;;;;;;12.40;8.30;;;;;;;17.71;38.08;101085.06;105378;1253;60323;-56
2023/12/18 00:45:34;;;;;;;8.90;4.30;;;;;;;17.75;38.04;101086.11;105379;1253;63619;-57
2023/12/18 00:48:02;;;;;;;10.10;6.20;;;;;;;17.75;38.27;101085.74;105340;1253;61609;-56
2023/12/18 00:50:30;;;;;;;7.00;3.00;;;;;;;17.72;38.21;101078.73;105724;1253;62475;-56
2023/12/18 00:52:58;;;;;;;6.00;2.60;;;;;;;17.69;38.15;101069.48;105321;1257;60572;-56
2023/12/18 00:55:25;;;;;;;10.70;6.70;;;;;;;17.62;38.22;101066.40;105330;1253;61389;-55
2023/12/18 00:57:54;;;;;;;4.80;2.10;;;;;;;17.58;38.35;101057.95;105338;1253;72596;-56
2023/12/18 01:00:22;;;;;;;9.70;6.10;;;;;;;17.65;38.28;101058.84;106033;1255;60510;-51
2023/12/18 01:02:50;;;;;;;5.40;1.80;;;;;;;17.74;38.36;101059.56;105393;1253;63808;-55
2023/12/18 01:05:18;;;;;;;7.90;1.90;;;;;;;17.87;38.09;101056.00;105973;1257;61115;-54
2023/12/18 01:07:45;;;;;;;9.00;5.30;;;;;;;17.90;38.10;101053.00;105994;1253;60417;-55
2023/12/18 01:10:13;;;;;;;8.90;5.70;;;;;;;17.90;38.25;101055.19;105380;1253;65031;-56
2023/12/18 01:12:41;;;;;;;4.60;2.20;;;;;;;17.89;38.06;101064.67;105289;1253;61961;-57
2023/12/18 01:15:09;;;;;;;6.70;2.30;;;;;;;17.85;38.13;101071.08;105267;1255;63793;-55
2023/12/18 01:17:36;;;;;;;8.50;4.50;;;;;;;17.81;38.19;101059.59;105475;1258;60404;-54
2023/12/18 01:20:06;;;;;;;5.50;1.80;;;;;;;17.77;38.23;101054.66;105392;1257;60454;-54
2023/12/18 01:22:33;;;;;;;4.50;1.00;;;;;;;17.84;38.19;101047.36;105675;1253;64897;-55
2023/12/18 01:25:02;;;;;;;7.70;4.80;;;;;;;17.88;37.98;101045.17;105320;1253;61665;-55
2023/12/18 01:27:30;;;;;;;7.80;4.90;;;;;;;17.93;38.04;101053.55;105634;1257;62451;-54
2023/12/18 01:29:57;;;;;;;5.00;1.70;;;;;;;17.94;38.02;101040.08;105434;1253;60597;-55
2023/12/18 01:32:25;;;;;;;9.00;6.10;;;;;;;17.93;38.15;101039.80;105858;1257;59655;-55
2023/12/18 01:34:52;;;;;;;5.40;1.80;;;;;;;17.90;38.01;101037.54;105447;1257;63628;-56
2023/12/18 01:37:20;;;;;;;9.20;5.90;;;;;;;17.89;38.02;101038.73;105374;1257;61732;-57
2023/12/18 01:39:48;;;;;;;6.70;2.70;;;;;;;17.85;38.07;101038.95;105404;1253;62534;-56
2023/12/18 01:42:15;;;;;;;9.90;5.70;;;;;;;17.89;38.17;101032.91;105344;1253;60470;-56
2023/12/18 01:44:43;;;;;;;5.10;1.90;;;;;;;17.94;38.11;101031.41;105520;1258;62083;-57
2023/12/18 01:47:11;;;;;;;10.20;5.60;;;;;;;17.99;37.88;101027.60;105323;1254;63729;-55
2023/12/18 01:49:38;;;;;;;4.10;1.40;;;;;;;18.04;37.97;101020.18;105493;1257;60249;-55
2023/12/18 01:52:06;;;;;;;8.40;5.80;;;;;;;18.06;37.96;101020.89;105316;1253;62463;-55
2023/12/18 01:54:34;;;;;;;5.30;2.30;;;;;;;18.03;37.83;101012.48;105316;1261;60555;-55
2023/12/18 01:57:02;;;;;;;9.50;6.20;;;;;;;18.01;37.92;101004.34;105385;1253;60581;-55
2023/12/18 01:59:30;;;;;;;6.20;2.00;;;;;;;17.97;37.94;100999.77;105790;1257;64997;-55
2023/12/18 02:01:58;;;;;;;10.20;6.90;;;;;;;17.99;37.82;100994.77;105759;1257;63379;-55
2023/12/18 02:04:26;;;;;;;10.20;6.40;;;;;;;18.00;37.74;100990.16;105294;1257;63738;-56
2023/12/18 02:06:54;;;;;;;7.60;2.90;;;;;;;18.02;37.80;100988.77;105402;1252;60618;-56
2023/12/18 02:09:22;;;;;;;10.00;6.60;;;;;;;18.02;37.86;100991.10;105888;1255;60657;-57
2023/12/18 02:11:49;;;;;;;6.20;2.90;;;;;;;17.99;37.93;100991.02;105966;1253;63617;-56
2023/12/18 02:14:17;;;;;;;9.70;6.80;;;;;;;17.97;38.04;100990.11;105386;1253;61434;-57
2023/12/18 02:16:44;;;;;;;7.30;2.60;;;;;;;17.95;38.00;100999.05;105370;1253;63677;-55
2023/12/18 02:19:22;;;;;;;12.10;7.40;;;;;;;18.01;37.77;100994.80;105523;1253;60488;-56
2023/12/18 02:21:50;;;;;;;6.40;2.40;;;;;;;18.07;37.81;101005.22;105964;1257;60546;-55
2023/12/18 02:24:18;;;;;;;7.10;2.10;;;;;;;18.10;37.73;101001.31;106025;1253;64921;-55
2023/12/18 02:26:46;;;;;;;9.90;7.30;;;;;;;18.12;37.76;100996.10;105459;1258;60413;-55
2023/12/18 02:29:14;;;;;;;5.90;2.20;;;;;;;18.09;37.85;100986.89;105451;1258;62519;-55
2023/12/18 02:31:42;;;;;;;11.30;8.00;;;;;;;18.01;37.91;100972.00;105466;1253;60474;-54
2023/12/18 02:34:09;;;;;;;8.60;2.60;;;;;;;17.98;38.02;100965.40;105470;1258;60363;-53
2023/12/18 02:36:37;;;;;;;14.30;9.20;;;;;;;17.93;37.94;100962.16;105449;1253;64953;-54
2023/12/18 02:39:06;;;;;;;7.50;2.70;;;;;;;17.88;38.23;100962.16;105385;1258;60461;-55
2023/12/18 02:41:33;;;;;;;14.30;9.10;;;;;;;17.89;38.02;100959.04;105633;1259;63798;-55
2023/12/18 02:44:01;;;;;;;13.10;4.20;;;;;;;17.96;38.05;100958.82;105628;1259;60545;-54
2023/12/18 02:46:29;;;;;;;8.00;2.90;;;;;;;18.01;37.99;100970.96;105660;1256;60406;-55
2023/12/18 02:48:57;;;;;;;14.20;8.90;;;;;;;18.06;38.13;100975.59;105421;1253;63632;-55
2023/12/18 02:51:24;;;;;;;12.60;9.30;;;;;;;18.10;38.11;100986.80;105522;1257;60499;-55
2023/12/18 02:53:52;;;;;;;7.90;4.40;;;;;;;18.11;38.22;101002.95;105912;1254;62571;-55
2023/12/18 02:56:20;;;;;;;16.40;10.40;;;;;;;18.07;38.16;101015.05;105449;1253;60586;-57
2023/12/18 02:58:48;;;;;;;7.50;3.70;;;;;;;17.99;38.16;101013.55;106052;1253;60033;-55
2023/12/18 03:01:15;;;;;;;11.90;4.10;;;;;;;17.98;38.27;101013.02;106113;1253;63676;-55
2023/12/18 03:03:43;;;;;;;10.70;4.40;;;;;;;18.01;38.34;101017.70;105414;1258;60396;-55
2023/12/18 03:06:11;;;;;;;13.70;9.90;;;;;;;18.04;38.09;101013.30;105359;1255;62661;-54
2023/12/18 03:08:39;;;;;;;8.40;3.40;;;;;;;18.09;38.09;101013.12;105440;1254;60560;-55
2023/12/18 03:11:07;;;;;;;16.40;10.00;;;;;;;18.14;38.20;101006.76;105501;1253;60646;-55
2023/12/18 03:13:34;;;;;;;9.80;4.30;;;;;;;18.13;38.19;101009.88;105404;1258;65554;-54
2023/12/18 03:16:02;;;;;;;16.10;10.70;;;;;;;18.10;38.14;101014.82;105458;1258;60475;-55
2023/12/18 03:18:30;;;;;;;16.00;10.90;;;;;;;18.05;38.18;101015.16;105694;1253;63798;-54
2023/12/18 03:20:58;;;;;;;12.10;3.50;;;;;;;18.03;38.36;101014.65;105443;1253;60541;-54
2023/12/18 03:23:25;;;;;;;16.00;10.30;;;;;;;18.08;38.19;101010.08;105836;1257;60370;-56
2023/12/18 03:25:53;;;;;;;9.80;3.70;;;;;;;18.08;38.20;101004.48;105849;1257;64860;-55
2023/12/18 03:28:21;;;;;;;16.60;11.30;;;;;;;18.08;38.19;101004.55;105332;1258;60643;-54
2023/12/18 03:30:48;;;;;;;11.90;5.30;;;;;;;18.02;38.24;101007.06;106014;1253;63760;-54
2023/12/18 03:33:16;;;;;;;15.90;10.80;;;;;;;17.96;38.39;101003.71;105347;1253;60435;-57
2023/12/18 03:35:44;;;;;;;11.30;5.60;;;;;;;17.92;38.52;100995.64;105485;1253;60507;-55
2023/12/18 03:38:12;;;;;;;16.70;10.30;;;;;;;17.93;38.42;100988.63;105397;1253;65034;-55
2023/12/18 03:40:39;;;;;;;8.90;2.70;;;;;;;17.98;38.40;100982.98;105565;1253;60443;-54
2023/12/18 03:43:07;;;;;;;8.20;3.20;;;;;;;18.07;38.32;100977.29;105419;1253;63687;-54
2023/12/18 03:45:35;;;;;;;17.10;10.70;;;;;;;18.10;38.17;100976.41;105470;1253;60488;-54
2023/12/18 03:48:03;;;;;;;12.60;4.20;;;;;;;18.04;38.20;100971.55;105455;1253;60312;-55
2023/12/18 03:50:30;;;;;;;18.80;11.80;;;;;;;17.98;38.49;100975.70;105771;1253;63749;-54
2023/12/18 03:52:58;;;;;;;9.00;3.80;;;;;;;17.98;38.54;100968.95;105463;1253;61406;-55
2023/12/18 03:55:25;;;;;;;9.50;3.20;;;;;;;17.96;38.42;100962.71;105833;1256;62516;-57
2023/12/18 03:57:53;;;;;;;11.00;5.00;;;;;;;17.99;38.47;100952.89;105405;1253;61245;-57
2023/12/18 04:00:21;;;;;;;15.60;10.40;;;;;;;18.03;38.39;100957.66;105359;1258;61145;-57
2023/12/18 04:02:49;;;;;;;19.30;11.30;;;;;;;18.09;38.33;100958.80;105882;1254;76629;-57
2023/12/18 04:05:17;;;;;;;7.90;3.10;;;;;;;18.13;38.31;100961.02;105987;1253;62049;-55
2023/12/18 04:07:45;;;;;;;14.90;11.10;;;;;;;18.17;38.18;100962.86;105446;1254;64246;-56
2023/12/18 04:10:13;;;;;;;12.30;5.00;;;;;;;18.16;38.34;100960.90;105413;1253;60530;-56
2023/12/18 04:12:41;;;;;;;17.40;12.40;;;;;;;18.12;38.32;100959.35;105510;1253;60504;-56
2023/12/18 04:15:09;;;;;;;11.00;5.40;;;;;;;18.08;38.27;100947.52;105440;1258;65407;-57
2023/12/18 04:17:37;;;;;;;18.60;11.50;;;;;;;18.10;38.15;100945.15;105553;1258;60572;-57
2023/12/18 04:20:05;;;;;;;16.50;10.20;;;;;;;18.15;38.13;100943.21;105345;1257;63753;-56
2023/12/18 04:22:33;;;;;;;9.60;3.30;;;;;;;18.20;38.16;100933.65;105596;1257;60429;-57
2023/12/18 04:25:01;;;;;;;17.40;11.90;;;;;;;18.23;38.02;100926.96;105702;1253;60542;-56
2023/12/18 04:27:28;;;;;;;11.70;6.00;;;;;;;18.22;38.14;100918.58;105454;1253;63676;-56
2023/12/18 04:29:56;;;;;;;19.40;12.20;;;;;;;18.18;38.20;100910.30;105442;1257;60610;-54
2023/12/18 04:32:24;;;;;;;12.40;4.30;;;;;;;18.12;38.20;100903.39;105412;1259;62427;-53
2023/12/18 04:34:51;;;;;;;20.80;13.90;;;;;;;18.10;38.17;100898.29;105691;1253;60393;-54
2023/12/18 04:37:19;;;;;;;11.90;5.10;;;;;;;18.07;38.03;100908.79;105381;1258;60482;-54
2023/12/18 04:39:47;;;;;;;10.70;3.60;;;;;;;18.08;38.06;100919.65;105443;1253;63811;-55
2023/12/18 04:42:14;;;;;;;19.30;12.50;;;;;;;18.13;38.12;100924.66;105460;1253;61370;-54
2023/12/18 04:44:42;;;;;;;9.00;3.80;;;;;;;18.19;38.22;100935.75;105411;1257;62637;-55
2023/12/18 04:47:10;;;;;;;18.50;12.20;;;;;;;18.22;38.10;100938.61;105460;1253;60659;-54
2023/12/18 04:49:37;;;;;;;10.50;4.40;;;;;;;18.18;38.07;100930.29;105446;1259;61075;-54
2023/12/18 04:52:05;;;;;;;20.70;13.30;;;;;;;18.15;38.13;100923.73;105637;1253;63860;-55
2023/12/18 04:54:33;;;;;;;20.00;12.80;;;;;;;18.12;38.22;100922.23;105206;1258;60438;-55
2023/12/18 04:57:01;;;;;;;11.50;4.30;;;;;;;18.14;38.28;100924.92;105231;1253;64191;-54
2023/12/18 04:59:28;;;;;;;18.10;13.30;;;;;;;18.11;38.18;100920.56;105416;1257;60559;-54
2023/12/18 05:01:56;;;;;;;10.90;4.40;;;;;;;18.07;38.20;100916.78;105657;1258;60461;-55
2023/12/18 05:04:24;;;;;;;12.40;4.70;;;;;;;18.13;38.15;100921.41;105721;1253;64906;-56
2023/12/18 05:06:52;;;;;;;11.30;4.30;;;;;;;18.16;38.24;100926.98;105932;1257;60456;-56
2023/12/18 05:09:19;;;;;;;20.90;13.30;;;;;;;18.17;38.25;100914.86;106010;1255;63864;-57
2023/12/18 05:11:47;;;;;;;13.00;5.40;;;;;;;18.21;38.36;100899.80;105327;1253;60527;-56
2023/12/18 05:14:15;;;;;;;22.00;14.00;;;;;;;18.27;38.15;100894.65;105438;1255;60355;-55
2023/12/18 05:16:43;;;;;;;11.60;4.50;;;;;;;18.27;38.08;100910.54;105449;1253;64904;-55
2023/12/18 05:19:10;;;;;;;21.80;13.90;;;;;;;18.29;38.00;100906.31;106261;1253;61415;-55
2023/12/18 05:21:38;;;;;;;14.60;5.90;;;;;;;18.27;38.13;100903.44;105231;1256;63692;-55
2023/12/18 05:24:06;;;;;;;11.80;5.00;;;;;;;18.29;38.00;100917.64;105497;1258;60319;-55
2023/12/18 05:26:34;;;;;;;11.40;3.90;;;;;;;18.31;37.93;100916.02;105689;1258;60359;-55
2023/12/18 05:29:02;;;;;;;20.10;14.20;;;;;;;18.36;37.93;100920.83;105205;1253;64934;-55
2023/12/18 05:31:31;;;;;;;14.30;6.40;;;;;;;18.37;37.82;100931.70;105724;1254;61355;-55
2023/12/18 05:33:59;;;;;;;20.30;13.70;;;;;;;18.33;37.95;100924.72;105667;1259;62992;-55
2023/12/18 05:36:27;;;;;;;13.10;7.20;;;;;;;18.27;38.04;100929.92;105732;1257;60617;-53
2023/12/18 05:38:55;;;;;;;24.10;16.50;;;;;;;18.19;38.07;100932.92;105626;1259;245886;-56
2023/12/18 05:44:07;;;;;;;13.20;6.90;;;;;;;16.26;42.09;100942.39;102331;1292;600197;-53
2023/12/18 05:46:34;;;;;;;15.60;6.90;;;;;;;17.94;38.79;100936.46;104445;1270;59283;-55
2023/12/18 05:49:02;;;;;;;23.90;15.70;;;;;;;18.19;38.23;100933.27;104439;1266;59331;-54
2023/12/18 05:51:29;;;;;;;14.10;6.00;;;;;;;18.30;38.03;100921.67;104785;1266;62090;-54
2023/12/18 05:53:57;;;;;;;24.20;16.90;;;;;;;18.38;38.04;100913.52;104494;1266;61433;-54
2023/12/18 05:56:25;;;;;;;16.50;7.40;;;;;;;18.38;37.98;100914.91;104647;1268;63900;-56
2023/12/18 05:58:52;;;;;;;23.60;15.60;;;;;;;18.33;37.95;100917.92;104484;1268;250061;-57
2023/12/18 06:01:20;;;;;;;9.30;4.30;;;;;;;18.29;37.96;100914.31;104649;1264;59348;-56
2023/12/18 06:03:48;;;;;;;19.20;13.00;;;;;;;18.29;38.10;100909.31;104496;1264;62049;-55
2023/12/18 06:06:16;;;;;;;13.50;7.10;;;;;;;18.37;37.89;100907.75;105110;1266;60328;-55
2023/12/18 06:08:44;;;;;;;20.50;13.00;;;;;;;18.38;37.91;100909.05;104699;1268;62495;-55
2023/12/18 06:11:15;;;;;;;9.20;3.90;;;;;;;18.39;37.87;100904.90;104783;1266;59772;-55
2023/12/18 06:13:43;;;;;;;19.30;13.90;;;;;;;18.39;38.05;100902.27;104724;1268;59663;-55
2023/12/18 06:16:10;;;;;;;13.00;5.60;;;;;;;18.34;38.06;100903.11;104635;1266;64101;-54
2023/12/18 06:18:38;;;;;;;20.50;13.70;;;;;;;18.30;38.16;100897.50;104459;1265;61598;-56
2023/12/18 06:21:06;;;;;;;14.50;5.00;;;;;;;18.26;38.12;100895.81;104790;1268;62525;-55
2023/12/18 06:23:34;;;;;;;16.90;5.80;;;;;;;18.28;38.02;100898.05;105014;1261;59750;-55
2023/12/18 06:26:04;;;;;;;11.60;4.40;;;;;;;18.34;37.80;100901.11;105159;1257;59780;-55
2023/12/18 06:28:31;;;;;;;19.30;13.40;;;;;;;18.40;37.76;100898.44;105381;1258;62915;-55
2023/12/18 06:30:59;;;;;;;13.70;5.40;;;;;;;18.42;37.83;100903.04;105184;1259;60245;-56
2023/12/18 06:33:27;;;;;;;18.10;12.50;;;;;;;18.41;37.84;100908.27;105405;1257;63765;-55
2023/12/18 06:35:55;;;;;;;17.10;13.50;;;;;;;18.38;37.87;100895.92;105511;1257;59760;-55
2023/12/18 06:38:22;;;;;;;9.70;4.80;;;;;;;18.38;37.85;100893.83;105467;1256;59730;-53
2023/12/18 06:40:50;;;;;;;17.50;6.30;;;;;;;18.41;37.76;100890.30;105144;1257;62986;-57
2023/12/18 06:43:18;;;;;;;19.80;13.40;;;;;;;18.45;37.71;100887.80;105646;1258;61829;-55
2023/12/18 06:45:45;;;;;;;13.20;5.00;;;;;;;18.48;37.71;100884.61;105103;1257;63781;-56
2023/12/18 06:48:13;;;;;;;20.30;14.70;;;;;;;18.50;37.57;100880.58;105121;1262;59763;-54
2023/12/18 06:50:41;;;;;;;13.90;6.00;;;;;;;18.51;37.69;100880.73;105112;1262;59676;-55
2023/12/18 06:53:09;;;;;;;21.00;15.60;;;;;;;18.53;37.54;100882.25;105176;1256;62876;-56
2023/12/18 06:55:38;;;;;;;12.20;4.90;;;;;;;18.53;37.57;100882.98;105134;1257;61840;-69
2023/12/18 06:58:06;;;;;;;26.50;15.70;;;;;;;18.55;37.54;100890.25;105773;1260;62504;-61
2023/12/18 07:00:33;;;;;;;12.70;5.40;;;;;;;18.57;37.63;100895.89;105822;1259;59721;-61
2023/12/18 07:03:08;;;;;;;23.10;16.10;;;;;;;18.59;37.53;100898.33;105699;1262;59686;-67
2023/12/18 07:05:36;;;;;;;16.90;7.20;;;;;;;18.48;37.70;100902.16;105696;1257;64164;-67
2023/12/18 07:08:04;;;;;;;28.30;19.40;;;;;;;18.42;37.86;100904.06;105739;1260;60152;-68
2023/12/18 07:10:31;;;;;;;13.90;7.60;;;;;;;18.42;37.83;100904.93;105560;1256;62499;-67
2023/12/18 07:12:59;;;;;;;36.70;26.00;;;;;;;18.40;37.96;100905.85;105556;1259;59827;-66
2023/12/18 07:15:27;;;;;;;17.60;9.70;;;;;;;18.33;37.96;100904.10;105621;1263;59672;-67
2023/12/18 07:17:58;;;;;;;24.90;18.30;;;;;;;18.31;37.76;100904.42;105648;1256;62827;-68
2023/12/18 07:20:26;;;;;;;15.70;7.20;;;;;;;18.35;37.73;100902.21;108712;1256;60314;-63
2023/12/18 07:22:54;;;;;;;14.90;7.60;;;;;;;18.42;37.75;100902.77;105553;1260;63931;-65
2023/12/18 07:25:21;;;;;;;28.70;18.80;;;;;;;18.46;37.65;100905.06;105623;1256;59753;-64
2023/12/18 07:27:49;;;;;;;29.10;20.10;;;;;;;18.48;37.72;100899.02;105715;1257;59672;-62
2023/12/18 07:30:17;;;;;;;13.50;6.90;;;;;;;18.49;37.69;100899.77;105182;1262;74212;-61
2023/12/18 07:32:45;;;;;;;29.00;21.50;;;;;;;18.50;37.62;100906.46;105797;1260;60349;-63
2023/12/18 07:35:13;;;;;;;16.00;6.90;;;;;;;18.44;37.65;100905.62;104945;1256;62538;-65
2023/12/18 07:37:41;;;;;;;47.50;27.80;;;;;;;18.42;37.60;100909.77;104940;1259;59834;-60
2023/12/18 07:40:09;;;;;;;41.30;28.00;;;;;;;18.40;37.45;100905.30;105060;1256;59700;-62
2023/12/18 07:42:37;;;;;;;20.10;10.10;;;;;;;18.39;37.47;100904.52;105073;1262;64055;-66
2023/12/18 07:45:05;;;;;;;37.40;25.40;;;;;;;18.41;37.62;100897.09;106091;1253;62413;-64
2023/12/18 07:47:33;;;;;;;18.60;10.10;;;;;;;18.41;37.57;100895.47;106172;1256;62493;-57
2023/12/18 07:50:01;;;;;;;33.20;22.60;;;;;;;18.43;37.61;100906.60;105752;1257;60087;-56
2023/12/18 07:52:29;;;;;;;19.20;9.00;;;;;;;18.35;37.65;100912.06;105342;1252;59746;-56
2023/12/18 07:54:56;;;;;;;30.20;20.40;;;;;;;18.35;37.48;100916.52;105492;1257;64537;-55
2023/12/18 07:57:24;;;;;;;16.80;7.70;;;;;;;18.43;37.58;100914.66;105495;1257;61926;-54
2023/12/18 07:59:54;;;;;;;29.10;19.90;;;;;;;18.46;37.52;100918.76;105965;1253;63869;-57
2023/12/18 08:02:21;;;;;;;31.40;20.40;;;;;;;18.43;37.54;100919.26;105264;1254;60056;-54
2023/12/18 08:04:49;;;;;;;15.30;7.10;;;;;;;18.40;37.66;100917.18;105340;1258;59636;-55
2023/12/18 08:07:17;;;;;;;30.70;21.80;;;;;;;18.41;37.62;100916.05;106019;1256;75250;-55
2023/12/18 08:09:44;;;;;;;27.50;19.30;;;;;;;18.43;37.52;100919.39;105518;1253;61362;-56
2023/12/18 08:12:12;;;;;;;17.40;7.70;;;;;;;18.44;37.53;100917.16;105502;1254;62482;-57
2023/12/18 08:14:43;;;;;;;17.30;7.80;;;;;;;18.46;37.52;100917.63;105361;1256;59505;-56
2023/12/18 08:17:11;;;;;;;30.90;20.80;;;;;;;18.57;37.38;100913.14;106319;1255;60023;-56
2023/12/18 08:19:39;;;;;;;16.90;8.10;;;;;;;18.63;37.40;100908.73;105261;1253;64555;-58
2023/12/18 08:22:07;;;;;;;31.20;20.90;;;;;;;18.63;37.29;100910.48;105477;1252;72651;-56
2023/12/18 08:24:34;;;;;;;31.20;22.30;;;;;;;18.60;37.14;100906.08;105652;1253;63801;-56
2023/12/18 08:27:03;;;;;;;18.50;8.50;;;;;;;18.53;37.39;100905.73;105294;1258;59760;-56
2023/12/18 08:29:30;;;;;;;28.90;20.10;;;;;;;18.54;37.40;100908.14;105442;1253;59701;-57
2023/12/18 08:31:58;;;;;;;15.50;6.80;;;;;;;18.55;37.20;100898.05;105356;1258;64689;-55
2023/12/18 08:34:25;;;;;;;31.40;20.90;;;;;;;18.58;37.24;100894.36;105340;1253;61894;-57
2023/12/18 08:36:53;;;;;;;31.60;22.40;;;;;;;18.58;37.13;100894.92;105692;1256;62515;-55
2023/12/18 08:39:21;;;;;;;20.60;9.80;;;;;;;18.47;37.22;100893.56;105332;1255;59863;-58
2023/12/18 08:41:50;;;;;;;34.90;22.30;;;;;;;18.41;37.49;100890.52;105976;1253;59797;-58
2023/12/18 08:44:19;;;;;;;18.10;10.40;;;;;;;18.35;37.63;100891.40;105362;1253;64494;-57
2023/12/18 08:46:47;;;;;;;37.20;23.80;;;;;;;18.36;37.47;100887.30;106032;1257;60166;-57
2023/12/18 08:49:15;;;;;;;34.20;22.70;;;;;;;18.41;37.49;100886.11;105444;1253;62588;-56
2023/12/18 08:51:43;;;;;;;15.50;8.20;;;;;;;18.44;37.49;100887.32;105885;1258;62236;-56
2023/12/18 08:54:11;;;;;;;28.40;20.30;;;;;;;18.40;37.53;100884.39;105285;1257;59517;-59
2023/12/18 08:56:38;;;;;;;20.10;8.80;;;;;;;18.41;37.48;100896.57;109321;1253;63006;-58
2023/12/18 08:59:06;;;;;;;31.40;21.30;;;;;;;18.36;37.45;100890.98;109324;1253;60110;-56
2023/12/18 09:01:37;;;;;;;33.50;20.40;;;;;;;18.38;37.46;100893.48;109120;1253;63830;-56
2023/12/18 09:04:06;;;;;;;14.30;6.80;;;;;;;18.50;37.49;100895.87;108891;1253;59260;-55
2023/12/18 09:06:35;;;;;;;29.40;20.20;;;;;;;18.64;37.36;100894.97;105630;1253;62995;-57
2023/12/18 09:09:03;;;;;;;25.00;11.50;;;;;;;18.76;37.22;100896.42;105527;1253;66508;-56
2023/12/18 09:11:33;;;;;;;32.20;22.50;;;;;;;18.80;37.11;100893.67;105422;1254;62234;-55
2023/12/18 09:14:03;;;;;;;30.00;21.80;;;;;;;18.79;36.97;100891.80;105755;1254;63671;-56
2023/12/18 09:16:31;;;;;;;14.30;7.80;;;;;;;18.77;36.92;100895.33;105693;1253;59668;-58
2023/12/18 09:18:58;;;;;;;28.20;19.80;;;;;;;18.86;36.80;100889.45;105425;1252;59807;-58
2023/12/18 09:21:26;;;;;;;34.90;22.80;;;;;;;18.95;36.69;100886.95;105479;1253;64547;-58
2023/12/18 09:23:54;;;;;;;14.40;6.20;;;;;;;18.96;36.66;100889.79;105864;1253;61662;-57
2023/12/18 09:26:22;;;;;;;33.30;23.40;;;;;;;18.84;36.76;100889.88;105284;1256;63738;-58
2023/12/18 09:28:50;;;;;;;35.20;24.80;;;;;;;18.73;36.90;100890.52;105949;1253;59610;-57
2023/12/18 09:31:18;;;;;;;20.10;9.30;;;;;;;18.65;36.98;100891.74;106035;1258;59554;-57
2023/12/18 09:33:46;;;;;;;31.50;20.60;;;;;;;18.70;37.24;100890.92;105385;1253;71633;-55
2023/12/18 09:36:14;;;;;;;39.80;22.80;;;;;;;18.78;37.15;100894.55;105298;1258;72657;-56
2023/12/18 09:38:42;;;;;;;22.00;9.10;;;;;;;18.75;37.02;100892.92;105374;1254;63725;-57
2023/12/18 09:41:10;;;;;;;39.40;24.50;;;;;;;18.68;37.20;100890.11;105378;1257;59739;-56
2023/12/18 09:43:37;;;;;;;20.40;10.40;;;;;;;18.63;37.28;100885.88;105385;1256;60299;-57
2023/12/18 09:46:05;;;;;;;34.10;22.60;;;;;;;18.60;37.39;100884.73;105483;1257;63252;-57
2023/12/18 09:48:33;;;;;;;23.90;10.50;;;;;;;18.55;37.53;100884.42;105684;1253;61895;-56
2023/12/18 09:51:01;;;;;;;30.90;21.70;;;;;;;18.54;37.50;100889.79;105327;1258;62599;-56
2023/12/18 09:53:29;;;;;;;20.80;8.90;;;;;;;18.54;37.53;100891.55;105326;1262;61612;-58
2023/12/18 09:55:57;;;;;;;28.80;20.50;;;;;;;18.58;37.52;100889.45;105342;1253;60540;-55
2023/12/18 09:58:24;;;;;;;32.00;22.10;;;;;;;18.54;37.55;100899.05;105427;1259;63725;-55
2023/12/18 10:00:52;;;;;;;18.30;9.50;;;;;;;18.49;37.37;100894.04;105291;1259;72617;-56
2023/12/18 10:03:20;;;;;;;32.40;22.60;;;;;;;18.46;37.54;100888.73;105988;1254;64303;-54
2023/12/18 10:05:48;;;;;;;17.00;8.10;;;;;;;18.40;37.69;100890.21;106066;1257;60455;-55
2023/12/18 10:08:16;;;;;;;16.90;8.50;;;;;;;18.43;37.88;100888.48;105298;1258;60642;-56
2023/12/18 10:10:44;;;;;;;27.40;19.00;;;;;;;18.51;37.79;100887.48;105305;1253;65088;-56
2023/12/18 10:13:12;;;;;;;30.70;20.20;;;;;;;18.53;37.72;100886.92;105394;1257;72762;-58
2023/12/18 10:15:42;;;;;;;34.50;21.30;;;;;;;18.51;37.63;100888.05;105393;1254;64173;-57
2023/12/18 10:18:10;;;;;;;19.70;8.40;;;;;;;18.49;37.76;100881.64;106251;1256;60530;-57
2023/12/18 10:20:39;;;;;;;29.20;21.10;;;;;;;18.51;37.72;100880.41;105409;1258;60590;-56
2023/12/18 10:23:07;;;;;;;14.70;7.60;;;;;;;18.58;37.69;100879.83;105453;1257;63769;-55
2023/12/18 10:25:35;;;;;;;18.50;8.60;;;;;;;18.63;37.59;100878.75;105607;1253;61615;-55
2023/12/18 10:28:03;;;;;;;15.30;8.20;;;;;;;18.67;37.58;100879.50;105328;1256;64328;-57
2023/12/18 10:30:31;;;;;;;30.40;19.10;;;;;;;18.67;37.37;100879.34;105480;1253;60515;-56
2023/12/18 10:33:03;;;;;;;30.50;19.50;;;;;;;18.64;37.59;100881.80;105455;1257;60445;-56
2023/12/18 10:35:34;;;;;;;29.80;19.70;;;;;;;18.62;37.68;100879.08;105879;1253;65565;-57
2023/12/18 10:38:02;;;;;;;16.90;7.40;;;;;;;18.56;37.77;100878.02;105495;1258;61591;-56
2023/12/18 10:40:30;;;;;;;27.60;20.70;;;;;;;18.51;37.87;100878.55;106577;1257;62535;-56
2023/12/18 10:43:01;;;;;;;19.90;8.00;;;;;;;18.48;37.90;100880.87;105409;1257;60456;-55
2023/12/18 10:45:29;;;;;;;29.80;20.40;;;;;;;18.51;37.89;100880.91;105403;1253;60565;-57
2023/12/18 10:47:56;;;;;;;26.80;18.30;;;;;;;18.55;37.74;100878.56;105702;1258;65008;-56
2023/12/18 10:50:25;;;;;;;27.80;18.40;;;;;;;18.57;37.71;100875.30;105359;1258;62444;-59
2023/12/18 10:52:52;;;;;;;20.70;9.20;;;;;;;18.61;37.74;100875.23;105730;1256;64108;-55
2023/12/18 10:55:20;;;;;;;27.40;19.00;;;;;;;18.66;38.02;100876.17;105325;1258;60442;-55
2023/12/18 10:57:49;;;;;;;14.60;8.50;;;;;;;18.66;37.82;100877.72;105328;1258;60458;-56
2023/12/18 11:00:17;;;;;;;28.60;19.40;;;;;;;18.64;37.77;100874.71;106169;1253;63709;-56
2023/12/18 11:02:45;;;;;;;23.60;16.90;;;;;;;18.66;37.74;100873.91;105270;1261;60512;-56
2023/12/18 11:05:13;;;;;;;12.10;6.60;;;;;;;18.75;37.72;100880.83;105350;1257;64866;-57
2023/12/18 11:07:41;;;;;;;24.40;18.40;;;;;;;18.83;37.60;100876.83;105238;1254;63855;-57
2023/12/18 11:10:09;;;;;;;14.80;8.90;;;;;;;18.95;37.58;100879.48;105325;1253;60725;-60
2023/12/18 11:12:40;;;;;;;26.30;16.60;;;;;;;18.99;37.41;100877.92;105414;1262;63835;-61